sensor_id;sensor_type;location;lat;lon;timestamp;P1;durP1;ratioP1;P2;durP2;ratioP2
7045;SDS011;3564;53.326;10.356;2024-03-23T00:54:44;16.77;;;5.10;;
7045;SDS011;3564;53.326;10.356;2024-03-23T00:57:10;15.90;;;4.27;;
7045;SDS011;3564;53.326;10.356;2024-03-23T00:59:35;15.67;;;4.07;;
7045;SDS011;3564;53.326;10.356;2024-03-23T01:02:01;16.97;;;4.37;;
7045;SDS011;3564;53.326;10.356;2024-03-23T01:04:27;18.10;;;4.50;;
7045;SDS011;3564;53.326;10.356;2024-03-23T01:06:52;17.00;;;4.33;;
7045;SDS011;3564;53.326;10.356;2024-03-23T01:09:18;20.77;;;5.17;;
7045;SDS011;3564;53.326;10.356;2024-03-23T01:11:43;17.67;;;5.00;;
7045;SDS011;3564;53.326;10.356;2024-03-23T01:14:09;17.67;;;4.97;;
7045;SDS011;3564;53.326;10.356;2024-03-23T01:16:34;23.70;;;5.23;;
7045;SDS011;3564;53.326;10.356;2024-03-23T01:19:00;16.93;;;5.27;;
7045;SDS011;3564;53.326;10.356;2024-03-23T01:21:26;19.97;;;4.47;;
7045;SDS011;3564;53.326;10.356;2024-03-23T01:23:51;13.73;;;3.60;;
7045;SDS011;3564;53.326;10.356;2024-03-23T01:26:17;15.73;;;4.67;;
7045;SDS011;3564;53.326;10.356;2024-03-23T01:28:42;16.33;;;3.97;;
7045;SDS011;3564;53.326;10.356;2024-03-23T01:31:08;16.60;;;3.83;;
7045;SDS011;3564;53.326;10.356;2024-03-23T01:33:35;18.67;;;4.70;;
7045;SDS011;3564;53.326;10.356;2024-03-23T01:36:01;29.77;;;6.87;;
7045;SDS011;3564;53.326;10.356;2024-03-23T01:38:26;16.77;;;4.10;;
7045;SDS011;3564;53.326;10.356;2024-03-23T01:40:58;20.90;;;5.00;;
7045;SDS011;3564;53.326;10.356;2024-03-23T01:43:24;17.93;;;4.30;;
7045;SDS011;3564;53.326;10.356;2024-03-23T01:45:51;13.00;;;3.57;;
7045;SDS011;3564;53.326;10.356;2024-03-23T01:48:18;15.87;;;4.43;;
7045;SDS011;3564;53.326;10.356;2024-03-23T01:50:47;13.27;;;3.87;;
7045;SDS011;3564;53.326;10.356;2024-03-23T01:53:13;13.83;;;4.50;;
7045;SDS011;3564;53.326;10.356;2024-03-23T01:55:42;17.63;;;3.97;;
7045;SDS011;3564;53.326;10.356;2024-03-23T01:58:08;14.70;;;4.30;;
7045;SDS011;3564;53.326;10.356;2024-03-23T02:00:33;16.60;;;4.17;;
7045;SDS011;3564;53.326;10.356;2024-03-23T02:02:59;13.10;;;4.40;;
7045;SDS011;3564;53.326;10.356;2024-03-23T02:05:25;17.53;;;4.10;;
7045;SDS011;3564;53.326;10.356;2024-03-23T02:07:50;20.53;;;5.23;;
7045;SDS011;3564;53.326;10.356;2024-03-23T02:10:16;18.03;;;4.23;;
7045;SDS011;3564;53.326;10.356;2024-03-23T02:12:42;16.87;;;4.70;;
7045;SDS011;3564;53.326;10.356;2024-03-23T02:15:07;16.77;;;4.87;;
7045;SDS011;3564;53.326;10.356;2024-03-23T02:17:36;16.50;;;4.83;;
7045;SDS011;3564;53.326;10.356;2024-03-23T02:20:02;18.50;;;4.30;;
7045;SDS011;3564;53.326;10.356;2024-03-23T02:22:35;19.10;;;4.23;;
7045;SDS011;3564;53.326;10.356;2024-03-23T02:25:02;10.80;;;4.23;;
7045;SDS011;3564;53.326;10.356;2024-03-23T02:27:29;19.90;;;5.00;;
7045;SDS011;3564;53.326;10.356;2024-03-23T02:29:55;15.13;;;4.63;;
7045;SDS011;3564;53.326;10.356;2024-03-23T02:32:20;17.23;;;4.50;;
7045;SDS011;3564;53.326;10.356;2024-03-23T02:34:46;16.33;;;4.33;;
7045;SDS011;3564;53.326;10.356;2024-03-23T02:37:13;14.77;;;3.63;;
7045;SDS011;3564;53.326;10.356;2024-03-23T02:39:38;11.63;;;3.33;;
7045;SDS011;3564;53.326;10.356;2024-03-23T02:42:04;13.97;;;4.57;;
7045;SDS011;3564;53.326;10.356;2024-03-23T02:44:30;14.77;;;4.20;;
7045;SDS011;3564;53.326;10.356;2024-03-23T02:46:55;12.40;;;4.47;;
7045;SDS011;3564;53.326;10.356;2024-03-23T02:49:21;15.20;;;4.57;;
7045;SDS011;3564;53.326;10.356;2024-03-23T02:51:46;16.30;;;4.07;;
7045;SDS011;3564;53.326;10.356;2024-03-23T02:54:13;16.80;;;4.37;;
7045;SDS011;3564;53.326;10.356;2024-03-23T02:56:39;13.87;;;4.60;;
7045;SDS011;3564;53.326;10.356;2024-03-23T02:59:04;19.90;;;3.73;;
7045;SDS011;3564;53.326;10.356;2024-03-23T03:01:30;20.07;;;4.40;;
7045;SDS011;3564;53.326;10.356;2024-03-23T03:03:56;18.30;;;4.40;;
7045;SDS011;3564;53.326;10.356;2024-03-23T03:06:24;20.90;;;4.73;;
7045;SDS011;3564;53.326;10.356;2024-03-23T03:08:50;17.50;;;4.20;;
7045;SDS011;3564;53.326;10.356;2024-03-23T03:11:16;15.87;;;3.80;;
7045;SDS011;3564;53.326;10.356;2024-03-23T03:13:42;20.83;;;4.90;;
7045;SDS011;3564;53.326;10.356;2024-03-23T03:16:10;23.37;;;4.53;;
7045;SDS011;3564;53.326;10.356;2024-03-23T03:18:36;17.70;;;4.47;;
7045;SDS011;3564;53.326;10.356;2024-03-23T03:21:02;17.37;;;4.83;;
7045;SDS011;3564;53.326;10.356;2024-03-23T03:23:30;15.13;;;4.33;;
7045;SDS011;3564;53.326;10.356;2024-03-23T03:25:56;18.97;;;4.40;;
7045;SDS011;3564;53.326;10.356;2024-03-23T03:28:22;14.53;;;3.73;;
7045;SDS011;3564;53.326;10.356;2024-03-23T03:30:47;14.13;;;3.90;;
7045;SDS011;3564;53.326;10.356;2024-03-23T03:33:13;18.50;;;4.37;;
7045;SDS011;3564;53.326;10.356;2024-03-23T03:35:38;18.33;;;5.33;;
7045;SDS011;3564;53.326;10.356;2024-03-23T03:38:04;18.60;;;4.60;;
7045;SDS011;3564;53.326;10.356;2024-03-23T03:40:30;15.80;;;4.00;;
7045;SDS011;3564;53.326;10.356;2024-03-23T03:42:55;20.93;;;4.67;;
7045;SDS011;3564;53.326;10.356;2024-03-23T03:45:21;14.17;;;4.17;;
7045;SDS011;3564;53.326;10.356;2024-03-23T03:47:46;14.30;;;4.23;;
7045;SDS011;3564;53.326;10.356;2024-03-23T03:50:12;15.53;;;4.07;;
7045;SDS011;3564;53.326;10.356;2024-03-23T03:52:38;16.47;;;4.37;;
7045;SDS011;3564;53.326;10.356;2024-03-23T03:55:03;14.07;;;4.33;;
7045;SDS011;3564;53.326;10.356;2024-03-23T03:57:38;15.20;;;5.40;;
7045;SDS011;3564;53.326;10.356;2024-03-23T04:00:03;16.93;;;3.73;;
7045;SDS011;3564;53.326;10.356;2024-03-23T04:02:29;22.17;;;4.20;;
7045;SDS011;3564;53.326;10.356;2024-03-23T04:04:55;14.00;;;4.10;;
7045;SDS011;3564;53.326;10.356;2024-03-23T04:07:20;16.57;;;4.20;;
7045;SDS011;3564;53.326;10.356;2024-03-23T04:09:47;18.27;;;5.23;;
7045;SDS011;3564;53.326;10.356;2024-03-23T04:12:13;13.13;;;3.87;;
7045;SDS011;3564;53.326;10.356;2024-03-23T04:14:39;13.73;;;4.40;;
7045;SDS011;3564;53.326;10.356;2024-03-23T04:17:04;14.60;;;4.13;;
7045;SDS011;3564;53.326;10.356;2024-03-23T04:19:30;15.90;;;4.63;;
7045;SDS011;3564;53.326;10.356;2024-03-23T04:21:55;16.97;;;4.43;;
7045;SDS011;3564;53.326;10.356;2024-03-23T04:24:21;10.83;;;3.87;;
7045;SDS011;3564;53.326;10.356;2024-03-23T04:26:47;13.00;;;4.30;;
7045;SDS011;3564;53.326;10.356;2024-03-23T04:29:13;15.97;;;4.30;;
7045;SDS011;3564;53.326;10.356;2024-03-23T04:31:38;19.37;;;4.77;;
7045;SDS011;3564;53.326;10.356;2024-03-23T04:34:04;15.57;;;3.93;;
7045;SDS011;3564;53.326;10.356;2024-03-23T04:36:30;20.83;;;4.53;;
7045;SDS011;3564;53.326;10.356;2024-03-23T04:38:59;16.43;;;4.37;;
7045;SDS011;3564;53.326;10.356;2024-03-23T04:41:25;16.50;;;4.43;;
7045;SDS011;3564;53.326;10.356;2024-03-23T04:43:51;14.40;;;3.83;;
7045;SDS011;3564;53.326;10.356;2024-03-23T04:46:17;13.43;;;3.93;;
7045;SDS011;3564;53.326;10.356;2024-03-23T04:48:46;15.37;;;4.27;;
7045;SDS011;3564;53.326;10.356;2024-03-23T04:51:19;11.73;;;3.67;;
7045;SDS011;3564;53.326;10.356;2024-03-23T04:53:46;13.63;;;3.77;;
7045;SDS011;3564;53.326;10.356;2024-03-23T04:56:13;14.93;;;4.17;;
7045;SDS011;3564;53.326;10.356;2024-03-23T04:58:41;16.60;;;3.90;;
7045;SDS011;3564;53.326;10.356;2024-03-23T05:01:07;14.77;;;4.00;;
7045;SDS011;3564;53.326;10.356;2024-03-23T05:03:33;11.47;;;3.80;;
7045;SDS011;3564;53.326;10.356;2024-03-23T05:05:58;17.97;;;4.23;;
7045;SDS011;3564;53.326;10.356;2024-03-23T05:08:25;13.73;;;4.20;;
7045;SDS011;3564;53.326;10.356;2024-03-23T05:10:51;14.47;;;4.40;;
7045;SDS011;3564;53.326;10.356;2024-03-23T05:13:16;16.83;;;4.67;;
7045;SDS011;3564;53.326;10.356;2024-03-23T05:15:43;13.90;;;4.03;;
7045;SDS011;3564;53.326;10.356;2024-03-23T05:18:08;12.47;;;3.97;;
7045;SDS011;3564;53.326;10.356;2024-03-23T05:20:34;17.57;;;3.93;;
7045;SDS011;3564;53.326;10.356;2024-03-23T05:22:59;20.33;;;4.77;;
7045;SDS011;3564;53.326;10.356;2024-03-23T05:25:25;17.37;;;5.63;;
7045;SDS011;3564;53.326;10.356;2024-03-23T05:27:50;9.90;;;3.87;;
7045;SDS011;3564;53.326;10.356;2024-03-23T05:30:16;19.10;;;4.33;;
7045;SDS011;3564;53.326;10.356;2024-03-23T05:32:42;18.37;;;4.40;;
7045;SDS011;3564;53.326;10.356;2024-03-23T05:35:07;17.03;;;4.07;;
7045;SDS011;3564;53.326;10.356;2024-03-23T05:37:36;19.20;;;4.67;;
7045;SDS011;3564;53.326;10.356;2024-03-23T05:40:02;13.80;;;3.53;;
7045;SDS011;3564;53.326;10.356;2024-03-23T05:42:29;13.90;;;3.53;;
7045;SDS011;3564;53.326;10.356;2024-03-23T05:44:55;20.37;;;4.17;;
7045;SDS011;3564;53.326;10.356;2024-03-23T05:47:20;18.23;;;4.07;;
7045;SDS011;3564;53.326;10.356;2024-03-23T05:49:46;19.47;;;4.00;;
7045;SDS011;3564;53.326;10.356;2024-03-23T05:52:12;15.13;;;4.07;;
7045;SDS011;3564;53.326;10.356;2024-03-23T05:54:40;17.90;;;4.10;;
7045;SDS011;3564;53.326;10.356;2024-03-23T05:57:05;18.33;;;3.97;;
7045;SDS011;3564;53.326;10.356;2024-03-23T05:59:34;14.60;;;4.47;;
7045;SDS011;3564;53.326;10.356;2024-03-23T06:01:59;20.17;;;5.10;;
7045;SDS011;3564;53.326;10.356;2024-03-23T06:04:25;14.47;;;4.40;;
7045;SDS011;3564;53.326;10.356;2024-03-23T06:06:51;11.03;;;3.97;;
7045;SDS011;3564;53.326;10.356;2024-03-23T06:09:19;12.33;;;3.93;;
7045;SDS011;3564;53.326;10.356;2024-03-23T06:11:45;15.43;;;3.90;;
7045;SDS011;3564;53.326;10.356;2024-03-23T06:14:11;13.57;;;4.00;;
7045;SDS011;3564;53.326;10.356;2024-03-23T06:16:36;12.87;;;4.03;;
7045;SDS011;3564;53.326;10.356;2024-03-23T06:19:02;16.80;;;4.50;;
7045;SDS011;3564;53.326;10.356;2024-03-23T06:21:29;19.30;;;4.27;;
7045;SDS011;3564;53.326;10.356;2024-03-23T06:23:55;16.47;;;3.87;;
7045;SDS011;3564;53.326;10.356;2024-03-23T06:26:20;10.03;;;4.13;;
7045;SDS011;3564;53.326;10.356;2024-03-23T06:28:47;15.50;;;4.53;;
7045;SDS011;3564;53.326;10.356;2024-03-23T06:31:13;12.13;;;3.63;;
7045;SDS011;3564;53.326;10.356;2024-03-23T06:33:38;14.53;;;3.87;;
7045;SDS011;3564;53.326;10.356;2024-03-23T06:36:06;18.67;;;5.43;;
7045;SDS011;3564;53.326;10.356;2024-03-23T06:38:33;16.70;;;4.27;;
7045;SDS011;3564;53.326;10.356;2024-03-23T06:41:00;15.57;;;5.17;;
7045;SDS011;3564;53.326;10.356;2024-03-23T06:43:29;14.27;;;4.67;;
7045;SDS011;3564;53.326;10.356;2024-03-23T06:45:55;15.90;;;3.77;;
7045;SDS011;3564;53.326;10.356;2024-03-23T06:48:21;14.20;;;4.13;;
7045;SDS011;3564;53.326;10.356;2024-03-23T06:50:47;18.20;;;4.20;;
7045;SDS011;3564;53.326;10.356;2024-03-23T06:53:13;13.57;;;4.00;;
7045;SDS011;3564;53.326;10.356;2024-03-23T06:55:42;14.23;;;3.57;;
7045;SDS011;3564;53.326;10.356;2024-03-23T06:58:17;13.33;;;4.40;;
7045;SDS011;3564;53.326;10.356;2024-03-23T07:00:43;16.77;;;4.13;;
7045;SDS011;3564;53.326;10.356;2024-03-23T07:03:09;12.43;;;4.17;;
7045;SDS011;3564;53.326;10.356;2024-03-23T07:05:36;16.27;;;3.90;;
7045;SDS011;3564;53.326;10.356;2024-03-23T07:08:01;14.23;;;4.23;;
7045;SDS011;3564;53.326;10.356;2024-03-23T07:10:27;12.50;;;3.57;;
7045;SDS011;3564;53.326;10.356;2024-03-23T07:12:54;11.87;;;3.47;;
7045;SDS011;3564;53.326;10.356;2024-03-23T07:15:19;12.63;;;4.03;;
7045;SDS011;3564;53.326;10.356;2024-03-23T07:17:48;18.50;;;4.23;;
7045;SDS011;3564;53.326;10.356;2024-03-23T07:20:13;11.70;;;4.17;;
7045;SDS011;3564;53.326;10.356;2024-03-23T07:22:39;19.03;;;4.53;;
7045;SDS011;3564;53.326;10.356;2024-03-23T07:25:05;16.97;;;4.00;;
7045;SDS011;3564;53.326;10.356;2024-03-23T07:27:31;16.80;;;4.70;;
7045;SDS011;3564;53.326;10.356;2024-03-23T07:29:57;17.97;;;5.20;;
7045;SDS011;3564;53.326;10.356;2024-03-23T07:32:23;11.23;;;4.23;;
7045;SDS011;3564;53.326;10.356;2024-03-23T07:34:48;17.07;;;4.17;;
7045;SDS011;3564;53.326;10.356;2024-03-23T07:37:15;13.47;;;3.80;;
7045;SDS011;3564;53.326;10.356;2024-03-23T07:39:40;14.50;;;3.90;;
7045;SDS011;3564;53.326;10.356;2024-03-23T07:42:06;12.83;;;4.37;;
7045;SDS011;3564;53.326;10.356;2024-03-23T07:44:32;13.20;;;4.17;;
7045;SDS011;3564;53.326;10.356;2024-03-23T07:46:58;14.43;;;4.23;;
7045;SDS011;3564;53.326;10.356;2024-03-23T07:49:32;16.97;;;4.53;;
7045;SDS011;3564;53.326;10.356;2024-03-23T07:51:58;10.83;;;3.97;;
7045;SDS011;3564;53.326;10.356;2024-03-23T07:54:23;14.23;;;4.10;;
7045;SDS011;3564;53.326;10.356;2024-03-23T07:56:49;12.60;;;3.97;;
7045;SDS011;3564;53.326;10.356;2024-03-23T07:59:15;21.63;;;4.83;;
7045;SDS011;3564;53.326;10.356;2024-03-23T08:01:40;15.33;;;4.27;;
7045;SDS011;3564;53.326;10.356;2024-03-23T08:04:06;16.60;;;4.43;;
7045;SDS011;3564;53.326;10.356;2024-03-23T08:06:31;15.07;;;4.90;;
7045;SDS011;3564;53.326;10.356;2024-03-23T08:08:57;15.77;;;4.73;;
7045;SDS011;3564;53.326;10.356;2024-03-23T08:11:27;12.77;;;4.37;;
7045;SDS011;3564;53.326;10.356;2024-03-23T08:13:54;13.87;;;3.43;;
7045;SDS011;3564;53.326;10.356;2024-03-23T08:16:20;14.80;;;3.73;;
7045;SDS011;3564;53.326;10.356;2024-03-23T08:18:46;16.47;;;3.77;;
7045;SDS011;3564;53.326;10.356;2024-03-23T08:21:12;12.43;;;3.83;;
7045;SDS011;3564;53.326;10.356;2024-03-23T08:23:37;16.47;;;4.93;;
7045;SDS011;3564;53.326;10.356;2024-03-23T08:26:04;16.17;;;4.27;;
7045;SDS011;3564;53.326;10.356;2024-03-23T08:28:31;13.53;;;4.10;;
7045;SDS011;3564;53.326;10.356;2024-03-23T08:30:57;13.30;;;3.53;;
7045;SDS011;3564;53.326;10.356;2024-03-23T08:33:27;13.47;;;4.07;;
7045;SDS011;3564;53.326;10.356;2024-03-23T08:35:54;12.87;;;3.60;;
7045;SDS011;3564;53.326;10.356;2024-03-23T08:38:20;15.80;;;4.53;;
7045;SDS011;3564;53.326;10.356;2024-03-23T08:40:47;12.93;;;4.43;;
7045;SDS011;3564;53.326;10.356;2024-03-23T08:43:12;15.30;;;4.27;;
7045;SDS011;3564;53.326;10.356;2024-03-23T08:45:38;12.47;;;3.80;;
7045;SDS011;3564;53.326;10.356;2024-03-23T08:48:04;13.37;;;4.17;;
7045;SDS011;3564;53.326;10.356;2024-03-23T08:50:31;15.13;;;4.27;;
7045;SDS011;3564;53.326;10.356;2024-03-23T08:52:56;12.83;;;4.27;;
7045;SDS011;3564;53.326;10.356;2024-03-23T08:55:22;10.20;;;3.33;;
7045;SDS011;3564;53.326;10.356;2024-03-23T08:57:47;14.43;;;4.57;;
7045;SDS011;3564;53.326;10.356;2024-03-23T09:00:13;13.57;;;4.00;;
7045;SDS011;3564;53.326;10.356;2024-03-23T09:02:40;11.23;;;3.00;;
7045;SDS011;3564;53.326;10.356;2024-03-23T09:05:06;16.73;;;3.97;;
7045;SDS011;3564;53.326;10.356;2024-03-23T09:07:31;12.23;;;3.53;;
7045;SDS011;3564;53.326;10.356;2024-03-23T09:09:57;13.47;;;3.90;;
7045;SDS011;3564;53.326;10.356;2024-03-23T09:12:24;13.13;;;3.07;;
7045;SDS011;3564;53.326;10.356;2024-03-23T09:14:50;13.80;;;3.07;;
7045;SDS011;3564;53.326;10.356;2024-03-23T09:17:15;13.10;;;3.43;;
7045;SDS011;3564;53.326;10.356;2024-03-23T09:19:41;12.60;;;3.17;;
7045;SDS011;3564;53.326;10.356;2024-03-23T09:22:07;10.27;;;3.13;;
7045;SDS011;3564;53.326;10.356;2024-03-23T09:24:32;14.27;;;3.10;;
7045;SDS011;3564;53.326;10.356;2024-03-23T09:26:58;5.53;;;2.93;;
7045;SDS011;3564;53.326;10.356;2024-03-23T09:29:23;10.77;;;2.73;;
7045;SDS011;3564;53.326;10.356;2024-03-23T09:31:49;9.00;;;3.00;;
7045;SDS011;3564;53.326;10.356;2024-03-23T09:34:14;16.90;;;3.90;;
7045;SDS011;3564;53.326;10.356;2024-03-23T09:36:40;12.30;;;3.43;;
7045;SDS011;3564;53.326;10.356;2024-03-23T09:39:06;8.80;;;3.23;;
7045;SDS011;3564;53.326;10.356;2024-03-23T09:41:34;9.97;;;2.40;;
7045;SDS011;3564;53.326;10.356;2024-03-23T09:44:00;10.47;;;2.80;;
7045;SDS011;3564;53.326;10.356;2024-03-23T09:46:26;11.93;;;2.70;;
7045;SDS011;3564;53.326;10.356;2024-03-23T09:48:53;7.47;;;3.13;;
7045;SDS011;3564;53.326;10.356;2024-03-23T09:51:20;9.00;;;2.60;;
7045;SDS011;3564;53.326;10.356;2024-03-23T09:53:46;7.03;;;2.73;;
7045;SDS011;3564;53.326;10.356;2024-03-23T09:56:12;13.23;;;3.40;;
7045;SDS011;3564;53.326;10.356;2024-03-23T09:58:37;9.23;;;3.07;;
7045;SDS011;3564;53.326;10.356;2024-03-23T10:01:03;7.83;;;3.23;;
7045;SDS011;3564;53.326;10.356;2024-03-23T10:03:29;11.17;;;2.97;;
7045;SDS011;3564;53.326;10.356;2024-03-23T10:06:01;10.13;;;3.20;;
7045;SDS011;3564;53.326;10.356;2024-03-23T10:08:28;10.30;;;2.73;;
7045;SDS011;3564;53.326;10.356;2024-03-23T10:10:54;8.37;;;2.43;;
7045;SDS011;3564;53.326;10.356;2024-03-23T10:13:26;8.40;;;2.60;;
7045;SDS011;3564;53.326;10.356;2024-03-23T10:15:54;8.00;;;2.60;;
7045;SDS011;3564;53.326;10.356;2024-03-23T10:18:22;8.73;;;2.50;;
7045;SDS011;3564;53.326;10.356;2024-03-23T10:21:30;9.00;;;2.30;;
7045;SDS011;3564;53.326;10.356;2024-03-23T10:23:40;7.30;;;2.63;;
7045;SDS011;3564;53.326;10.356;2024-03-23T10:28:51;8.03;;;2.47;;
7045;SDS011;3564;53.326;10.356;2024-03-23T10:31:23;9.13;;;2.37;;
7045;SDS011;3564;53.326;10.356;2024-03-23T10:33:49;10.10;;;2.43;;
7045;SDS011;3564;53.326;10.356;2024-03-23T10:36:14;7.33;;;2.13;;
7045;SDS011;3564;53.326;10.356;2024-03-23T10:38:41;7.43;;;2.33;;
7045;SDS011;3564;53.326;10.356;2024-03-23T10:41:08;7.40;;;2.30;;
7045;SDS011;3564;53.326;10.356;2024-03-23T10:43:35;8.13;;;2.90;;
7045;SDS011;3564;53.326;10.356;2024-03-23T10:46:02;9.10;;;2.57;;
7045;SDS011;3564;53.326;10.356;2024-03-23T10:48:31;8.53;;;2.73;;
7045;SDS011;3564;53.326;10.356;2024-03-23T10:50:57;5.87;;;2.43;;
7045;SDS011;3564;53.326;10.356;2024-03-23T10:53:25;7.63;;;2.40;;
7045;SDS011;3564;53.326;10.356;2024-03-23T10:55:55;5.60;;;2.57;;
7045;SDS011;3564;53.326;10.356;2024-03-23T10:58:28;10.93;;;3.37;;
7045;SDS011;3564;53.326;10.356;2024-03-23T11:00:57;8.70;;;3.30;;
7045;SDS011;3564;53.326;10.356;2024-03-23T11:03:29;7.20;;;3.00;;
7045;SDS011;3564;53.326;10.356;2024-03-23T11:05:55;10.37;;;2.83;;
7045;SDS011;3564;53.326;10.356;2024-03-23T11:08:30;6.17;;;2.60;;
7045;SDS011;3564;53.326;10.356;2024-03-23T11:11:17;7.77;;;2.03;;
7045;SDS011;3564;53.326;10.356;2024-03-23T11:13:49;4.50;;;2.10;;
7045;SDS011;3564;53.326;10.356;2024-03-23T11:16:16;6.50;;;2.17;;
7045;SDS011;3564;53.326;10.356;2024-03-23T11:18:42;9.47;;;2.30;;
7045;SDS011;3564;53.326;10.356;2024-03-23T11:21:08;5.97;;;2.47;;
7045;SDS011;3564;53.326;10.356;2024-03-23T11:23:35;5.43;;;2.20;;
7045;SDS011;3564;53.326;10.356;2024-03-23T11:26:00;10.90;;;2.57;;
7045;SDS011;3564;53.326;10.356;2024-03-23T11:28:26;7.30;;;2.30;;
7045;SDS011;3564;53.326;10.356;2024-03-23T11:30:52;4.80;;;2.13;;
7045;SDS011;3564;53.326;10.356;2024-03-23T11:33:17;6.83;;;2.70;;
7045;SDS011;3564;53.326;10.356;2024-03-23T11:35:43;5.50;;;2.30;;
7045;SDS011;3564;53.326;10.356;2024-03-23T11:38:09;7.40;;;2.37;;
7045;SDS011;3564;53.326;10.356;2024-03-23T11:40:40;9.37;;;2.67;;
7045;SDS011;3564;53.326;10.356;2024-03-23T11:43:13;6.73;;;2.50;;
7045;SDS011;3564;53.326;10.356;2024-03-23T11:45:46;10.90;;;2.77;;
7045;SDS011;3564;53.326;10.356;2024-03-23T11:48:21;7.80;;;2.83;;
7045;SDS011;3564;53.326;10.356;2024-03-23T11:50:48;7.27;;;2.17;;
7045;SDS011;3564;53.326;10.356;2024-03-23T11:53:16;7.23;;;2.13;;
7045;SDS011;3564;53.326;10.356;2024-03-23T11:55:46;4.77;;;2.37;;
7045;SDS011;3564;53.326;10.356;2024-03-23T11:58:28;12.53;;;2.80;;
7045;SDS011;3564;53.326;10.356;2024-03-23T12:03:30;5.37;;;2.10;;
7045;SDS011;3564;53.326;10.356;2024-03-23T12:05:59;8.80;;;2.03;;
7045;SDS011;3564;53.326;10.356;2024-03-23T12:08:30;7.47;;;2.10;;
7045;SDS011;3564;53.326;10.356;2024-03-23T12:13:37;5.83;;;2.00;;
7045;SDS011;3564;53.326;10.356;2024-03-23T12:16:10;7.27;;;2.23;;
7045;SDS011;3564;53.326;10.356;2024-03-23T12:18:39;4.30;;;2.03;;
7045;SDS011;3564;53.326;10.356;2024-03-23T12:21:06;5.40;;;1.87;;
7045;SDS011;3564;53.326;10.356;2024-03-23T12:23:32;6.07;;;1.87;;
7045;SDS011;3564;53.326;10.356;2024-03-23T12:25:58;5.70;;;2.03;;
7045;SDS011;3564;53.326;10.356;2024-03-23T12:28:23;8.63;;;2.10;;
7045;SDS011;3564;53.326;10.356;2024-03-23T12:30:50;6.30;;;2.20;;
7045;SDS011;3564;53.326;10.356;2024-03-23T12:33:17;3.77;;;1.70;;
7045;SDS011;3564;53.326;10.356;2024-03-23T12:35:42;7.17;;;1.80;;
7045;SDS011;3564;53.326;10.356;2024-03-23T12:38:08;5.10;;;2.17;;
7045;SDS011;3564;53.326;10.356;2024-03-23T12:40:34;8.30;;;2.20;;
7045;SDS011;3564;53.326;10.356;2024-03-23T12:42:59;4.93;;;2.10;;
7045;SDS011;3564;53.326;10.356;2024-03-23T12:45:25;7.33;;;2.60;;
7045;SDS011;3564;53.326;10.356;2024-03-23T12:47:50;4.23;;;2.00;;
7045;SDS011;3564;53.326;10.356;2024-03-23T12:50:19;4.63;;;1.87;;
7045;SDS011;3564;53.326;10.356;2024-03-23T12:52:45;6.93;;;2.17;;
7045;SDS011;3564;53.326;10.356;2024-03-23T12:55:10;7.23;;;2.10;;
7045;SDS011;3564;53.326;10.356;2024-03-23T12:57:36;7.60;;;1.83;;
7045;SDS011;3564;53.326;10.356;2024-03-23T13:00:02;4.63;;;1.80;;
7045;SDS011;3564;53.326;10.356;2024-03-23T13:02:29;3.40;;;1.83;;
7045;SDS011;3564;53.326;10.356;2024-03-23T13:04:54;2.97;;;1.90;;
7045;SDS011;3564;53.326;10.356;2024-03-23T13:07:21;4.77;;;2.00;;
7045;SDS011;3564;53.326;10.356;2024-03-23T13:09:51;5.90;;;2.03;;
7045;SDS011;3564;53.326;10.356;2024-03-23T13:12:18;3.33;;;2.00;;
7045;SDS011;3564;53.326;10.356;2024-03-23T13:14:45;5.97;;;2.17;;
7045;SDS011;3564;53.326;10.356;2024-03-23T13:17:12;4.37;;;2.20;;
7045;SDS011;3564;53.326;10.356;2024-03-23T13:19:38;4.53;;;2.07;;
7045;SDS011;3564;53.326;10.356;2024-03-23T13:22:04;5.73;;;2.27;;
7045;SDS011;3564;53.326;10.356;2024-03-23T13:24:33;3.40;;;1.67;;
7045;SDS011;3564;53.326;10.356;2024-03-23T13:26:59;3.63;;;1.60;;
7045;SDS011;3564;53.326;10.356;2024-03-23T13:29:24;4.97;;;1.90;;
7045;SDS011;3564;53.326;10.356;2024-03-23T13:31:50;6.33;;;1.70;;
7045;SDS011;3564;53.326;10.356;2024-03-23T13:34:17;2.00;;;1.40;;
7045;SDS011;3564;53.326;10.356;2024-03-23T13:36:44;1.93;;;1.30;;
7045;SDS011;3564;53.326;10.356;2024-03-23T13:39:11;3.80;;;1.57;;
7045;SDS011;3564;53.326;10.356;2024-03-23T13:41:38;2.70;;;1.30;;
7045;SDS011;3564;53.326;10.356;2024-03-23T13:44:13;3.13;;;1.30;;
7045;SDS011;3564;53.326;10.356;2024-03-23T13:46:42;2.73;;;1.33;;
7045;SDS011;3564;53.326;10.356;2024-03-23T13:51:56;3.53;;;1.50;;
7045;SDS011;3564;53.326;10.356;2024-03-23T13:54:25;2.03;;;1.37;;
7045;SDS011;3564;53.326;10.356;2024-03-23T13:56:52;2.07;;;1.20;;
7045;SDS011;3564;53.326;10.356;2024-03-23T13:59:22;3.83;;;1.60;;
7045;SDS011;3564;53.326;10.356;2024-03-23T14:01:51;1.47;;;1.13;;
7045;SDS011;3564;53.326;10.356;2024-03-23T14:04:17;4.20;;;1.40;;
7045;SDS011;3564;53.326;10.356;2024-03-23T14:06:45;1.33;;;1.20;;
7045;SDS011;3564;53.326;10.356;2024-03-23T14:09:11;2.10;;;1.20;;
7045;SDS011;3564;53.326;10.356;2024-03-23T14:11:37;1.30;;;1.17;;
7045;SDS011;3564;53.326;10.356;2024-03-23T14:14:03;3.73;;;1.10;;
7045;SDS011;3564;53.326;10.356;2024-03-23T14:16:32;2.53;;;1.20;;
7045;SDS011;3564;53.326;10.356;2024-03-23T14:18:58;1.50;;;1.30;;
7045;SDS011;3564;53.326;10.356;2024-03-23T14:21:24;3.23;;;1.47;;
7045;SDS011;3564;53.326;10.356;2024-03-23T14:23:49;2.87;;;1.10;;
7045;SDS011;3564;53.326;10.356;2024-03-23T14:26:15;1.70;;;1.10;;
7045;SDS011;3564;53.326;10.356;2024-03-23T14:28:41;1.90;;;1.20;;
7045;SDS011;3564;53.326;10.356;2024-03-23T14:31:06;2.50;;;1.07;;
7045;SDS011;3564;53.326;10.356;2024-03-23T14:33:38;2.87;;;1.00;;
7045;SDS011;3564;53.326;10.356;2024-03-23T14:36:10;2.63;;;1.30;;
7045;SDS011;3564;53.326;10.356;2024-03-23T14:38:37;2.07;;;1.20;;
7045;SDS011;3564;53.326;10.356;2024-03-23T14:41:03;1.73;;;1.20;;
7045;SDS011;3564;53.326;10.356;2024-03-23T14:43:29;1.20;;;1.10;;
7045;SDS011;3564;53.326;10.356;2024-03-23T14:46:08;1.87;;;1.20;;
7045;SDS011;3564;53.326;10.356;2024-03-23T14:48:41;1.40;;;0.97;;
7045;SDS011;3564;53.326;10.356;2024-03-23T14:51:08;2.27;;;1.40;;
7045;SDS011;3564;53.326;10.356;2024-03-23T14:53:34;1.50;;;1.30;;
7045;SDS011;3564;53.326;10.356;2024-03-23T14:56:01;2.07;;;1.23;;
7045;SDS011;3564;53.326;10.356;2024-03-23T14:58:28;1.80;;;1.00;;
7045;SDS011;3564;53.326;10.356;2024-03-23T15:01:04;1.63;;;1.20;;
7045;SDS011;3564;53.326;10.356;2024-03-23T15:03:30;1.53;;;1.00;;
7045;SDS011;3564;53.326;10.356;2024-03-23T15:05:56;1.93;;;1.07;;
7045;SDS011;3564;53.326;10.356;2024-03-23T15:08:25;2.60;;;1.40;;
7045;SDS011;3564;53.326;10.356;2024-03-23T15:10:51;2.40;;;1.47;;
7045;SDS011;3564;53.326;10.356;2024-03-23T15:13:16;2.17;;;1.27;;
7045;SDS011;3564;53.326;10.356;2024-03-23T15:15:42;1.83;;;1.20;;
7045;SDS011;3564;53.326;10.356;2024-03-23T15:18:13;2.13;;;1.20;;
7045;SDS011;3564;53.326;10.356;2024-03-23T15:20:51;1.67;;;1.30;;
7045;SDS011;3564;53.326;10.356;2024-03-23T15:23:17;1.37;;;1.10;;
7045;SDS011;3564;53.326;10.356;2024-03-23T15:25:43;2.30;;;1.13;;
7045;SDS011;3564;53.326;10.356;2024-03-23T15:28:09;3.10;;;1.20;;
7045;SDS011;3564;53.326;10.356;2024-03-23T15:30:34;2.27;;;1.53;;
7045;SDS011;3564;53.326;10.356;2024-03-23T15:33:00;2.47;;;1.20;;
7045;SDS011;3564;53.326;10.356;2024-03-23T15:35:25;6.17;;;1.60;;
7045;SDS011;3564;53.326;10.356;2024-03-23T15:37:53;3.33;;;1.10;;
7045;SDS011;3564;53.326;10.356;2024-03-23T15:40:18;5.23;;;1.40;;
7045;SDS011;3564;53.326;10.356;2024-03-23T15:42:44;2.47;;;1.30;;
7045;SDS011;3564;53.326;10.356;2024-03-23T15:45:10;3.53;;;1.60;;
7045;SDS011;3564;53.326;10.356;2024-03-23T15:47:36;2.27;;;1.67;;
7045;SDS011;3564;53.326;10.356;2024-03-23T15:50:02;3.53;;;1.47;;
7045;SDS011;3564;53.326;10.356;2024-03-23T15:52:33;2.13;;;1.30;;
7045;SDS011;3564;53.326;10.356;2024-03-23T15:55:00;4.53;;;1.40;;